createdAt,value
2023-02-04T00:00:37.481Z,101133.09
2023-02-04T00:03:05.507Z,101140.09
2023-02-04T00:05:33.220Z,101132.97
2023-02-04T00:08:00.893Z,101134.69
2023-02-04T00:11:08.399Z,101149.50
2023-02-04T00:13:35.798Z,101143.41
2023-02-04T00:16:03.272Z,101137.19
2023-02-04T00:18:30.608Z,101135.31
2023-02-04T00:20:58.099Z,101116.84
2023-02-04T00:23:25.643Z,101111.59
2023-02-04T00:25:53.370Z,101138.69
2023-02-04T00:28:20.980Z,101147.56
2023-02-04T00:30:48.590Z,101149.19
2023-02-04T00:33:16.242Z,101152.91
2023-02-04T00:35:44.137Z,101155.38
2023-02-04T00:38:11.796Z,101149.28
2023-02-04T00:40:39.512Z,101159.94
2023-02-04T00:43:07.333Z,101159.91
2023-02-04T00:45:34.991Z,101151.88
2023-02-04T00:48:02.584Z,101151.94
2023-02-04T00:50:30.316Z,101140.47
2023-02-04T00:53:01.973Z,101134.22
2023-02-04T00:55:30.703Z,101124.44
2023-02-04T00:57:59.412Z,101139.44
2023-02-04T01:00:27.536Z,101145.72
2023-02-04T01:02:56.514Z,101125.53
2023-02-04T01:05:24.028Z,101135.25
2023-02-04T01:07:51.710Z,101133.38
2023-02-04T01:10:19.539Z,101121.91
2023-02-04T01:12:47.762Z,101119.09
2023-02-04T01:15:15.621Z,101114.84
2023-02-04T01:17:43.359Z,101116.59
2023-02-04T01:20:11.504Z,101121.88
2023-02-04T01:22:39.209Z,101118.41
2023-02-04T01:25:07.602Z,101114.81
2023-02-04T01:27:42.835Z,101114.91
2023-02-04T01:30:12.146Z,101113.16
2023-02-04T01:32:39.857Z,101104.38
2023-02-04T01:35:08.954Z,101107.78
2023-02-04T01:37:36.472Z,101102.34
2023-02-04T01:40:05.294Z,101129.44
2023-02-04T01:42:32.954Z,101121.66
2023-02-04T01:45:00.482Z,101135.00
2023-02-04T01:47:28.150Z,101127.25
2023-02-04T01:49:56.076Z,101129.81
2023-02-04T01:52:24.613Z,101128.75
2023-02-04T01:54:53.538Z,101132.91
2023-02-04T01:57:21.309Z,101111.13
2023-02-04T01:59:53.085Z,101108.78
2023-02-04T02:02:43.535Z,101115.84
2023-02-04T02:05:16.962Z,101112.28
2023-02-04T02:07:45.114Z,101110.69
2023-02-04T02:10:14.952Z,101108.84
2023-02-04T02:12:45.575Z,101103.50
2023-02-04T02:15:14.427Z,101098.31
2023-02-04T02:17:42.536Z,101111.50
2023-02-04T02:20:13.048Z,101095.75
2023-02-04T02:22:58.110Z,101112.50
2023-02-04T02:25:26.148Z,101092.19
2023-02-04T02:27:55.090Z,101078.91
2023-02-04T02:30:23.715Z,101076.31
2023-02-04T02:32:52.467Z,101091.22
2023-02-04T02:35:21.444Z,101065.75
2023-02-04T02:37:50.310Z,101061.31
2023-02-04T02:40:18.272Z,101062.97
2023-02-04T02:42:50.808Z,101067.31
2023-02-04T02:45:30.347Z,101053.91
2023-02-04T02:48:00.692Z,101064.41
2023-02-04T02:50:31.589Z,101054.09
2023-02-04T02:53:01.071Z,101061.03
2023-02-04T02:55:29.049Z,101062.88
2023-02-04T02:57:58.429Z,101081.09
2023-02-04T03:00:31.271Z,101078.34
2023-02-04T03:03:08.325Z,101060.91
2023-02-04T03:05:42.316Z,101070.59
2023-02-04T03:08:12.907Z,101060.94
2023-02-04T03:10:41.654Z,101071.44
2023-02-04T03:13:10.246Z,101060.91
2023-02-04T03:15:38.471Z,101049.53
2023-02-04T03:18:06.538Z,101051.94
2023-02-04T03:20:34.750Z,101061.69
2023-02-04T03:23:02.399Z,101053.72
2023-02-04T03:25:30.086Z,101056.44
2023-02-04T03:27:59.211Z,101055.59
2023-02-04T03:30:27.421Z,101057.44
2023-02-04T03:32:55.141Z,101047.75
2023-02-04T03:35:23.352Z,101039.88
2023-02-04T03:37:51.048Z,101028.56
2023-02-04T03:40:18.875Z,101040.66
2023-02-04T03:42:46.942Z,101042.41
2023-02-04T03:45:14.388Z,101031.78
2023-02-04T03:47:41.745Z,101036.91
2023-02-04T03:50:11.138Z,101022.03
2023-02-04T03:52:38.579Z,101032.56
2023-02-04T03:55:06.360Z,101033.50
2023-02-04T03:57:33.726Z,101025.34
2023-02-04T04:00:01.092Z,101032.34
2023-02-04T04:02:28.469Z,101043.94
2023-02-04T04:04:55.940Z,101047.44
2023-02-04T04:07:23.348Z,101026.19
2023-02-04T04:09:51.004Z,101047.09
2023-02-04T04:12:18.346Z,101043.88
2023-02-04T04:14:45.688Z,101054.44
2023-02-04T04:17:13.104Z,101048.00
2023-02-04T04:19:40.460Z,101042.09
2023-02-04T04:22:07.854Z,101053.59
2023-02-04T04:24:35.236Z,101068.47
2023-02-04T04:27:02.979Z,101059.03
2023-02-04T04:29:30.352Z,101064.19
2023-02-04T04:31:57.734Z,101066.38
2023-02-04T04:34:25.136Z,101047.25
2023-02-04T04:36:52.554Z,101054.50
2023-02-04T04:39:20.014Z,101053.69
2023-02-04T04:41:47.375Z,101072.19
2023-02-04T04:44:14.761Z,101063.34
2023-02-04T04:46:42.249Z,101036.13
2023-02-04T04:49:09.676Z,101023.81
2023-02-04T04:51:37.060Z,101012.50
2023-02-04T04:54:04.528Z,100995.78
2023-02-04T04:56:31.915Z,100986.19
2023-02-04T04:58:59.268Z,100988.84
2023-02-04T05:01:26.632Z,101017.06
2023-02-04T05:03:54.027Z,101024.88
2023-02-04T05:06:25.364Z,101021.31
2023-02-04T05:08:53.142Z,101014.94
2023-02-04T05:11:21.198Z,101015.81
2023-02-04T05:13:48.813Z,101025.63
2023-02-04T05:16:17.396Z,101029.19
2023-02-04T05:18:45.316Z,101037.78
2023-02-04T05:21:12.868Z,101048.31
2023-02-04T05:23:40.216Z,101046.31
2023-02-04T05:26:07.604Z,101069.16
2023-02-04T05:28:35.066Z,101054.44
2023-02-04T05:31:02.554Z,101065.84
2023-02-04T05:33:29.914Z,101093.88
2023-02-04T05:35:57.335Z,101076.41
2023-02-04T05:38:24.693Z,101071.16
2023-02-04T05:40:52.057Z,101059.84
2023-02-04T05:43:19.489Z,101055.44
2023-02-04T05:45:46.956Z,101066.94
2023-02-04T05:48:15.412Z,101068.38
2023-02-04T05:50:42.820Z,101056.94
2023-02-04T05:53:10.337Z,101070.03
2023-02-04T05:55:37.702Z,101079.50
2023-02-04T05:58:05.115Z,101056.78
2023-02-04T06:00:32.730Z,101076.25
2023-02-04T06:03:00.368Z,101082.31
2023-02-04T06:05:27.770Z,101086.88
2023-02-04T06:07:55.332Z,101070.16
2023-02-04T06:10:22.666Z,101072.63
2023-02-04T06:12:50.135Z,101090.25
2023-02-04T06:15:17.518Z,101085.94
2023-02-04T06:17:44.803Z,101064.88
2023-02-04T06:20:14.503Z,101083.28
2023-02-04T06:22:41.851Z,101096.72
2023-02-04T06:25:09.168Z,101110.91
2023-02-04T06:27:36.463Z,101103.16
2023-02-04T06:30:04.180Z,101104.88
2023-02-04T06:32:31.578Z,101101.13
2023-02-04T06:34:58.862Z,101097.84
2023-02-04T06:37:26.123Z,101109.44
2023-02-04T06:39:54.750Z,101123.50
2023-02-04T06:42:22.093Z,101129.66
2023-02-04T06:44:49.379Z,101125.41
2023-02-04T06:47:16.762Z,101143.78
2023-02-04T06:49:44.046Z,101140.16
2023-02-04T06:52:11.627Z,101143.59
2023-02-04T06:54:38.905Z,101147.84
2023-02-04T06:57:09.385Z,101166.47
2023-02-04T06:59:39.026Z,101168.25
2023-02-04T07:02:07.828Z,101152.63
2023-02-04T07:04:35.467Z,101140.25
2023-02-04T07:07:03.317Z,101159.44
2023-02-04T07:09:30.582Z,101170.00
2023-02-04T07:11:57.943Z,101162.13
2023-02-04T07:14:25.312Z,101152.44
2023-02-04T07:16:52.777Z,101146.31
2023-02-04T07:19:21.299Z,101146.50
2023-02-04T07:21:48.691Z,101161.50
2023-02-04T07:24:16.049Z,101173.91
2023-02-04T07:26:43.414Z,101170.44
2023-02-04T07:29:17.432Z,101170.50
2023-02-04T07:31:51.007Z,101182.84
2023-02-04T07:34:18.719Z,101187.41
2023-02-04T07:36:46.199Z,101176.88
2023-02-04T07:39:13.647Z,101184.69
2023-02-04T07:41:41.105Z,101195.25
2023-02-04T07:44:08.528Z,101196.09
2023-02-04T07:46:35.994Z,101205.88
2023-02-04T07:49:03.468Z,101194.44
2023-02-04T07:51:31.200Z,101194.34
2023-02-04T07:53:58.559Z,101206.72
2023-02-04T07:56:25.884Z,101207.69
2023-02-04T07:58:53.346Z,101187.50
2023-02-04T08:01:20.768Z,101194.53
2023-02-04T08:03:48.145Z,101199.84
2023-02-04T08:06:15.591Z,101203.44
2023-02-04T08:08:42.939Z,101190.19
2023-02-04T08:11:10.445Z,101206.97
2023-02-04T08:13:37.772Z,101205.22
2023-02-04T08:16:05.646Z,101212.38
2023-02-04T08:18:33.242Z,101218.59
2023-02-04T08:21:01.616Z,101218.66
2023-02-04T08:23:29.017Z,101223.88
2023-02-04T08:25:56.469Z,101231.00
2023-02-04T08:28:24.607Z,101229.31
2023-02-04T08:30:52.021Z,101220.34
2023-02-04T08:33:19.939Z,101220.47
2023-02-04T08:35:47.306Z,101202.00
2023-02-04T08:38:14.642Z,101209.03
2023-02-04T08:40:42.285Z,101210.06
2023-02-04T08:43:10.384Z,101215.56
2023-02-04T08:45:37.820Z,101199.72
2023-02-04T08:48:06.554Z,101187.06
2023-02-04T08:50:34.230Z,101211.06
2023-02-04T08:53:01.783Z,101242.66
2023-02-04T08:55:29.187Z,101213.91
2023-02-04T08:57:56.663Z,101210.13
2023-02-04T09:00:24.278Z,101222.22
2023-02-04T09:02:51.870Z,101217.03
2023-02-04T09:05:19.325Z,101226.56
2023-02-04T09:07:46.704Z,101210.69
2023-02-04T09:10:14.180Z,101208.88
2023-02-04T09:12:43.004Z,101215.28
2023-02-04T09:15:12.224Z,101215.44
2023-02-04T09:17:39.683Z,101211.94
2023-02-04T09:20:07.398Z,101241.03
2023-02-04T09:22:36.748Z,101234.91
2023-02-04T09:25:04.384Z,101229.69
2023-02-04T09:27:31.726Z,101249.94
2023-02-04T09:29:59.872Z,101241.09
2023-02-04T09:32:27.242Z,101250.81
2023-02-04T09:34:54.588Z,101257.88
2023-02-04T09:37:21.958Z,101257.88
2023-02-04T09:39:49.557Z,101246.44
2023-02-04T09:42:17.179Z,101247.31
2023-02-04T09:44:45.551Z,101247.31
2023-02-04T09:47:15.514Z,101254.34
2023-02-04T09:49:46.949Z,101261.38
2023-02-04T09:52:16.816Z,101257.00
2023-02-04T09:54:44.690Z,101244.66
2023-02-04T09:57:21.326Z,101249.03
2023-02-04T09:59:56.110Z,101249.91
2023-02-04T10:02:25.983Z,101255.16
2023-02-04T10:04:57.869Z,101275.44
2023-02-04T10:07:27.472Z,101278.06
2023-02-04T10:09:55.664Z,101279.88
2023-02-04T10:12:23.606Z,101272.78
2023-02-04T10:14:51.917Z,101270.09
2023-02-04T10:17:22.590Z,101279.84
2023-02-04T10:19:50.413Z,101288.69
2023-02-04T10:22:21.141Z,101301.88
2023-02-04T10:24:48.627Z,101279.75
2023-02-04T10:27:18.591Z,101264.72
2023-02-04T10:29:58.709Z,101259.41
2023-02-04T10:32:32.700Z,101282.25
2023-02-04T10:35:02.231Z,101274.25
2023-02-04T10:37:30.829Z,101267.25
2023-02-04T10:40:00.568Z,101268.06
2023-02-04T10:42:29.916Z,101270.69
2023-02-04T10:44:58.029Z,101257.34
2023-02-04T10:47:31.308Z,101273.19
2023-02-04T10:50:17.447Z,101280.28
2023-02-04T10:52:49.712Z,101258.16
2023-02-04T10:55:19.957Z,101252.00
2023-02-04T10:57:50.058Z,101253.69
2023-02-04T11:00:25.989Z,101245.63
2023-02-04T11:02:53.569Z,101245.50
2023-02-04T11:05:24.063Z,101245.63
2023-02-04T11:07:51.559Z,101232.28
2023-02-04T11:10:23.495Z,101228.69
2023-02-04T11:12:53.870Z,101240.22
2023-02-04T11:15:44.870Z,101238.34
2023-02-04T11:18:27.639Z,101233.75
2023-02-04T11:20:57.767Z,101229.38
2023-02-04T11:23:28.457Z,101222.31
2023-02-04T11:26:13.446Z,101233.75
2023-02-04T11:28:50.603Z,101235.38
2023-02-04T11:31:20.869Z,101231.78
2023-02-04T11:33:49.839Z,101240.56
2023-02-04T11:36:17.863Z,101246.78
2023-02-04T11:38:50.093Z,101245.00
2023-02-04T11:41:24.998Z,101238.66
2023-02-04T11:43:55.025Z,101232.47
2023-02-04T11:46:23.927Z,101227.63
2023-02-04T11:48:58.824Z,101224.09
2023-02-04T11:51:31.498Z,101223.25
2023-02-04T11:53:59.195Z,101226.72
2023-02-04T11:56:29.669Z,101226.50
2023-02-04T11:58:58.705Z,101225.72
2023-02-04T12:01:32.381Z,101223.06
2023-02-04T12:04:05.274Z,101223.00
2023-02-04T12:06:36.365Z,101232.88
2023-02-04T12:09:16.353Z,101238.91
2023-02-04T12:11:59.428Z,101239.69
2023-02-04T12:14:35.584Z,101236.13
2023-02-04T12:17:18.535Z,101227.25
2023-02-04T12:19:46.129Z,101216.47
2023-02-04T12:22:14.834Z,101210.34
2023-02-04T12:24:42.947Z,101204.16
2023-02-04T12:27:10.328Z,101212.91
2023-02-04T12:29:37.678Z,101202.28
2023-02-04T12:32:05.265Z,101203.91
2023-02-04T12:34:32.708Z,101190.47
2023-02-04T12:37:00.219Z,101208.22
2023-02-04T12:39:28.658Z,101201.16
2023-02-04T12:41:56.155Z,101200.16
2023-02-04T12:44:23.514Z,101197.22
2023-02-04T12:46:51.616Z,101199.69
2023-02-04T12:49:19.060Z,101206.97
2023-02-04T12:51:46.401Z,101202.50
2023-02-04T12:54:13.773Z,101187.19
2023-02-04T12:56:41.600Z,101190.34
2023-02-04T12:59:08.939Z,101191.00
2023-02-04T13:01:36.294Z,101179.69
2023-02-04T13:04:03.921Z,101186.88
2023-02-04T13:06:31.304Z,101187.66
2023-02-04T13:08:58.670Z,101167.88
2023-02-04T13:11:26.040Z,101168.84
2023-02-04T13:13:53.403Z,101184.53
2023-02-04T13:16:22.930Z,101190.22
2023-02-04T13:18:50.996Z,101183.22
2023-02-04T13:21:18.369Z,101182.28
2023-02-04T13:23:45.898Z,101180.50
2023-02-04T13:26:13.297Z,101178.78
2023-02-04T13:28:40.699Z,101182.34
2023-02-04T13:31:08.173Z,101181.59
2023-02-04T13:33:35.759Z,101176.19
2023-02-04T13:36:03.617Z,101172.69
2023-02-04T13:38:30.953Z,101189.25
2023-02-04T13:40:58.801Z,101190.09
2023-02-04T13:43:26.404Z,101182.91
2023-02-04T13:45:55.364Z,101184.66
2023-02-04T13:48:22.753Z,101190.88
2023-02-04T13:50:50.893Z,101184.56
2023-02-04T13:53:18.256Z,101199.56
2023-02-04T13:55:45.655Z,101200.38
2023-02-04T13:58:13.399Z,101197.94
2023-02-04T14:00:40.934Z,101204.19
2023-02-04T14:03:08.304Z,101207.47
2023-02-04T14:05:35.674Z,101211.16
2023-02-04T14:08:04.324Z,101220.59
2023-02-04T14:10:32.150Z,101209.22
2023-02-04T14:13:00.202Z,101216.94
2023-02-04T14:15:27.518Z,101215.56
2023-02-04T14:17:54.792Z,101221.28
2023-02-04T14:20:22.137Z,101211.47
2023-02-04T14:22:49.430Z,101217.69
2023-02-04T14:25:16.802Z,101222.19
2023-02-04T14:27:44.288Z,101229.19
2023-02-04T14:30:23.724Z,101225.66
2023-02-04T14:32:51.332Z,101215.91
2023-02-04T14:35:19.319Z,101214.94
2023-02-04T14:37:46.947Z,101235.44
2023-02-04T14:40:16.597Z,101239.97
2023-02-04T14:42:44.223Z,101247.72
2023-02-04T14:45:13.239Z,101266.56
2023-02-04T14:47:41.083Z,101284.19
2023-02-04T14:50:12.462Z,101281.03
2023-02-04T14:52:39.814Z,101302.50
2023-02-04T14:55:08.821Z,101303.56
2023-02-04T14:57:36.152Z,101301.84
2023-02-04T15:00:05.391Z,101312.59
2023-02-04T15:02:32.816Z,101307.19
2023-02-04T15:05:00.231Z,101324.56
2023-02-04T15:07:27.604Z,101325.44
2023-02-04T15:09:55.058Z,101338.06
2023-02-04T15:12:22.737Z,101346.06
2023-02-04T15:14:50.190Z,101351.44
2023-02-04T15:17:18.821Z,101327.81
2023-02-04T15:19:46.383Z,101343.03
2023-02-04T15:22:14.032Z,101345.72
2023-02-04T15:24:41.392Z,101356.19
2023-02-04T15:27:08.777Z,101366.28
2023-02-04T15:29:36.140Z,101386.97
2023-02-04T15:32:03.860Z,101391.31
2023-02-04T15:34:31.599Z,101372.88
2023-02-04T15:36:59.007Z,101384.78
2023-02-04T15:39:27.661Z,101399.84
2023-02-04T15:41:55.100Z,101401.75
2023-02-04T15:44:22.682Z,101416.44
2023-02-04T15:46:50.142Z,101436.03
2023-02-04T15:49:17.576Z,101428.25
2023-02-04T15:51:44.954Z,101422.50
2023-02-04T15:54:12.493Z,101447.50
2023-02-04T15:56:39.905Z,101451.97
2023-02-04T15:59:07.335Z,101461.06
2023-02-04T16:01:34.753Z,101460.25
2023-02-04T16:04:02.149Z,101470.22
2023-02-04T16:06:29.565Z,101470.25
2023-02-04T16:08:56.923Z,101459.75
2023-02-04T16:11:24.268Z,101474.81
2023-02-04T16:13:51.707Z,101481.97
2023-02-04T16:16:19.662Z,101479.38
2023-02-04T16:18:47.088Z,101477.66
2023-02-04T16:21:14.455Z,101488.28
2023-02-04T16:23:43.550Z,101492.72
2023-02-04T16:26:11.028Z,101502.47
2023-02-04T16:28:38.390Z,101512.28
2023-02-04T16:31:09.700Z,101503.41
2023-02-04T16:33:37.081Z,101529.03
2023-02-04T16:36:08.119Z,101516.59
2023-02-04T16:38:36.694Z,101509.38
2023-02-04T16:41:04.463Z,101524.41
2023-02-04T16:43:32.020Z,101540.31
2023-02-04T16:45:59.386Z,101538.66
2023-02-04T16:48:26.737Z,101546.56
2023-02-04T16:50:54.480Z,101559.78
2023-02-04T16:53:22.282Z,101566.94
2023-02-04T16:55:49.630Z,101569.59
2023-02-04T16:58:17.146Z,101561.66
2023-02-04T17:00:44.908Z,101567.03
2023-02-04T17:03:13.275Z,101582.94
2023-02-04T17:05:41.404Z,101569.66
2023-02-04T17:08:08.975Z,101595.31
2023-02-04T17:10:55.419Z,101601.56
2023-02-04T17:13:22.896Z,101598.94
2023-02-04T17:15:50.300Z,101619.25
2023-02-04T17:18:17.941Z,101613.00
2023-02-04T17:20:45.351Z,101638.69
2023-02-04T17:23:12.767Z,101636.88
2023-02-04T17:25:40.120Z,101641.28
2023-02-04T17:28:07.579Z,101650.06
2023-02-04T17:30:34.970Z,101659.69
2023-02-04T17:33:02.415Z,101657.94
2023-02-04T17:35:29.780Z,101665.03
2023-02-04T17:37:59.656Z,101676.53
2023-02-04T17:40:28.152Z,101681.69
2023-02-04T17:42:56.455Z,101689.66
2023-02-04T17:45:24.617Z,101695.94
2023-02-04T17:47:51.992Z,101708.28
2023-02-04T17:50:19.406Z,101696.00
2023-02-04T17:52:46.892Z,101710.06
2023-02-04T17:55:27.714Z,101730.38
2023-02-04T17:57:58.350Z,101722.56
2023-02-04T18:00:31.900Z,101727.91
2023-02-04T18:02:59.779Z,101731.47
2023-02-04T18:05:28.573Z,101752.66
2023-02-04T18:07:58.967Z,101751.75
2023-02-04T18:10:33.044Z,101770.38
2023-02-04T18:13:06.841Z,101751.72
2023-02-04T18:15:34.681Z,101757.94
2023-02-04T18:18:23.944Z,101765.84
2023-02-04T18:20:58.477Z,101766.75
2023-02-04T18:23:28.990Z,101780.94
2023-02-04T18:26:05.203Z,101780.09
2023-02-04T18:28:34.632Z,101799.59
2023-02-04T18:31:03.713Z,101797.84
2023-02-04T18:33:33.095Z,101811.09
2023-02-04T18:36:01.927Z,101834.13
2023-02-04T18:38:37.223Z,101819.06
2023-02-04T18:41:22.814Z,101829.69
2023-02-04T18:44:02.664Z,101826.16
2023-02-04T18:46:35.457Z,101835.03
2023-02-04T18:49:25.115Z,101846.63
2023-02-04T18:51:52.859Z,101838.75
2023-02-04T18:54:27.023Z,101849.31
2023-02-04T18:57:08.263Z,101860.91
2023-02-04T18:59:35.600Z,101863.56
2023-02-04T19:02:26.045Z,101865.34
2023-02-04T19:05:11.145Z,101859.13
2023-02-04T19:07:39.928Z,101887.50
2023-02-04T19:10:42.732Z,101877.75
2023-02-04T19:13:23.862Z,101896.38
2023-02-04T19:16:20.846Z,101899.91
2023-02-04T19:18:48.569Z,101895.50
2023-02-04T19:21:17.880Z,101915.03
2023-02-04T19:23:45.761Z,101902.66
2023-02-04T19:26:32.160Z,101904.47
2023-02-04T19:29:00.137Z,101916.88
2023-02-04T19:31:34.724Z,101911.53
2023-02-04T19:34:33.288Z,101931.03
2023-02-04T19:37:00.676Z,101938.16
2023-02-04T19:39:40.400Z,101939.00
2023-02-04T19:42:33.802Z,101942.56
2023-02-04T19:45:13.688Z,101950.56
2023-02-04T19:47:43.713Z,101958.50
2023-02-04T19:50:13.970Z,101961.16
2023-02-04T19:52:52.414Z,101961.16
2023-02-04T19:55:33.887Z,101964.63
2023-02-04T19:58:17.455Z,101984.19
2023-02-04T20:01:09.501Z,101985.94
2023-02-04T20:03:47.179Z,101990.41
2023-02-04T20:06:33.399Z,101983.31
2023-02-04T20:09:14.060Z,101992.19
2023-02-04T20:11:50.741Z,102006.41
2023-02-04T20:14:22.941Z,102012.63
2023-02-04T20:17:13.214Z,102014.41
2023-02-04T20:19:42.459Z,102015.28
2023-02-04T20:22:19.055Z,102023.28
2023-02-04T20:24:49.504Z,102033.94
2023-02-04T20:27:36.701Z,102029.50
2023-02-04T20:30:11.930Z,102033.06
2023-02-04T20:32:45.907Z,102034.84
2023-02-04T20:35:13.213Z,102033.94
2023-02-04T20:37:42.288Z,102044.59
2023-02-04T20:40:32.128Z,102052.56
2023-02-04T20:43:20.975Z,102054.34
2023-02-04T20:45:56.090Z,102064.06
2023-02-04T20:48:29.115Z,102058.75
2023-02-04T20:50:58.572Z,102066.75
2023-02-04T20:53:38.557Z,102072.94
2023-02-04T20:56:27.357Z,102084.47
2023-02-04T20:59:02.971Z,102073.81
2023-02-04T21:01:36.128Z,102080.00
2023-02-04T21:04:22.239Z,102083.53
2023-02-04T21:07:04.089Z,102083.56
2023-02-04T21:09:34.168Z,102075.56
2023-02-04T21:12:02.600Z,102086.22
2023-02-04T21:14:30.291Z,102100.38
2023-02-04T21:16:57.764Z,102093.25
2023-02-04T21:19:27.813Z,102105.69
2023-02-04T21:21:58.927Z,102109.22
2023-02-04T21:24:27.130Z,102102.13
2023-02-04T21:26:54.574Z,102110.97
2023-02-04T21:29:21.907Z,102111.88
2023-02-04T21:31:50.007Z,102132.22
2023-02-04T21:34:17.538Z,102119.78
2023-02-04T21:36:44.940Z,102124.19
2023-02-04T21:39:12.302Z,102148.06
2023-02-04T21:41:39.650Z,102134.72
2023-02-04T21:44:07.264Z,102144.44
2023-02-04T21:46:34.725Z,102138.19
2023-02-04T21:49:04.965Z,102142.63
2023-02-04T21:51:32.432Z,102147.88
2023-02-04T21:54:00.862Z,102163.75
2023-02-04T21:56:28.340Z,102148.69
2023-02-04T21:58:56.451Z,102151.34
2023-02-04T22:01:23.865Z,102173.41
2023-02-04T22:03:51.305Z,102149.41
2023-02-04T22:06:18.722Z,102163.56
2023-02-04T22:08:46.111Z,102169.75
2023-02-04T22:11:13.629Z,102176.75
2023-02-04T22:13:59.365Z,102184.78
2023-02-04T22:16:26.780Z,102173.22
2023-02-04T22:18:54.271Z,102188.31
2023-02-04T22:21:21.676Z,102175.84
2023-02-04T22:23:48.999Z,102173.16
2023-02-04T22:26:16.375Z,102190.94
2023-02-04T22:28:43.740Z,102197.09
2023-02-04T22:31:12.535Z,102207.69
2023-02-04T22:33:39.994Z,102200.63
2023-02-04T22:36:07.691Z,102209.53
2023-02-04T22:38:35.053Z,102206.81
2023-02-04T22:41:02.410Z,102218.31
2023-02-04T22:43:29.975Z,102205.84
2023-02-04T22:45:57.423Z,102211.13
2023-02-04T22:48:24.879Z,102211.97
2023-02-04T22:50:52.315Z,102204.88
2023-02-04T22:53:19.724Z,102233.25
2023-02-04T22:55:47.059Z,102236.78
2023-02-04T22:58:14.414Z,102232.25
2023-02-04T23:00:42.178Z,102237.50
2023-02-04T23:03:09.529Z,102234.03
2023-02-04T23:05:37.609Z,102247.34
2023-02-04T23:08:05.736Z,102240.19
2023-02-04T23:10:33.230Z,102246.22
2023-02-04T23:13:00.544Z,102251.50
2023-02-04T23:15:27.835Z,102260.22
2023-02-04T23:17:55.132Z,102258.38
2023-02-04T23:20:22.486Z,102259.22
2023-02-04T23:22:49.888Z,102265.31
2023-02-04T23:25:17.795Z,102261.88
2023-02-04T23:27:45.073Z,102274.91
2023-02-04T23:30:13.135Z,102273.94
2023-02-04T23:32:41.022Z,102281.00
2023-02-04T23:35:08.610Z,102274.03
2023-02-04T23:37:36.011Z,102270.50
2023-02-04T23:40:03.965Z,102268.59
2023-02-04T23:42:32.306Z,102276.44
2023-02-04T23:44:59.683Z,102278.16
2023-02-04T23:47:26.966Z,102271.13
2023-02-04T23:49:54.284Z,102274.59
2023-02-04T23:52:21.570Z,102283.44
2023-02-04T23:54:48.856Z,102279.91
2023-02-04T23:57:18.306Z,102288.63
2023-02-04T23:59:45.653Z,102279.78
